createdAt,value
2019-02-24T00:00:20.554Z,6.40
2019-02-24T00:03:28.682Z,7.00
2019-02-24T00:06:35.671Z,6.50
2019-02-24T00:09:42.575Z,6.10
2019-02-24T00:12:50.130Z,5.40
2019-02-24T00:15:57.312Z,5.40
2019-02-24T00:19:04.158Z,5.13
2019-02-24T00:22:10.937Z,5.20
2019-02-24T00:25:17.375Z,6.00
2019-02-24T00:28:24.100Z,6.03
2019-02-24T00:31:31.932Z,5.63
2019-02-24T00:34:40.851Z,6.33
2019-02-24T00:37:47.970Z,6.03
2019-02-24T00:40:54.569Z,6.00
2019-02-24T00:44:01.547Z,5.50
2019-02-24T00:47:08.124Z,6.17
2019-02-24T00:50:14.863Z,4.87
2019-02-24T00:53:21.676Z,5.07
2019-02-24T00:56:28.212Z,4.63
2019-02-24T00:59:34.479Z,5.47
2019-02-24T01:02:41.082Z,4.50
2019-02-24T01:05:48.049Z,4.60
2019-02-24T01:08:54.699Z,3.97
2019-02-24T01:12:01.273Z,4.50
2019-02-24T01:15:11.470Z,4.33
2019-02-24T01:18:18.134Z,5.00
2019-02-24T01:21:26.432Z,4.40
2019-02-24T01:24:32.942Z,4.37
2019-02-24T01:27:39.358Z,4.33
2019-02-24T01:30:46.209Z,3.77
2019-02-24T01:33:52.447Z,3.77
2019-02-24T01:36:59.197Z,2.53
2019-02-24T01:40:05.860Z,2.93
2019-02-24T01:43:12.731Z,2.83
2019-02-24T01:46:19.427Z,2.50
2019-02-24T01:49:25.888Z,2.27
2019-02-24T01:52:32.530Z,2.83
2019-02-24T01:55:38.895Z,2.57
2019-02-24T01:58:45.156Z,2.50
2019-02-24T02:01:52.245Z,2.67
2019-02-24T02:04:59.929Z,2.97
2019-02-24T02:08:06.410Z,2.77
2019-02-24T02:11:12.966Z,2.20
2019-02-24T02:14:19.578Z,2.20
2019-02-24T02:17:25.931Z,2.57
2019-02-24T02:20:32.369Z,1.87
2019-02-24T02:23:39.020Z,1.97
2019-02-24T02:26:45.458Z,2.43
2019-02-24T02:29:51.700Z,2.23
2019-02-24T02:32:58.797Z,2.40
2019-02-24T02:36:05.144Z,2.40
2019-02-24T02:39:11.692Z,2.37
2019-02-24T02:42:18.188Z,1.97
2019-02-24T02:45:24.687Z,1.90
2019-02-24T02:48:31.417Z,2.00
2019-02-24T02:51:38.616Z,1.90
2019-02-24T02:54:46.587Z,1.77
2019-02-24T02:57:52.846Z,1.37
2019-02-24T03:00:59.501Z,1.50
2019-02-24T03:04:05.927Z,1.90
2019-02-24T03:09:11.026Z,1.10
2019-02-24T03:12:17.670Z,1.70
2019-02-24T03:15:24.310Z,1.40
2019-02-24T03:18:30.806Z,1.73
2019-02-24T03:21:39.825Z,1.33
2019-02-24T03:24:46.169Z,1.57
2019-02-24T03:27:52.585Z,1.20
2019-02-24T03:30:59.040Z,1.07
2019-02-24T03:34:05.384Z,1.57
2019-02-24T03:37:11.649Z,1.40
2019-02-24T03:40:18.266Z,1.40
2019-02-24T03:43:24.873Z,1.40
2019-02-24T03:46:31.439Z,1.30
2019-02-24T03:49:38.239Z,1.30
2019-02-24T03:52:44.670Z,1.30
2019-02-24T03:55:51.417Z,1.33
2019-02-24T03:58:58.064Z,1.47
2019-02-24T04:02:04.485Z,1.93
2019-02-24T04:05:10.838Z,1.33
2019-02-24T04:08:17.202Z,1.83
2019-02-24T04:11:23.984Z,1.37
2019-02-24T04:14:30.299Z,1.43
2019-02-24T04:17:36.939Z,1.30
2019-02-24T04:20:43.343Z,1.43
2019-02-24T04:23:49.957Z,1.50
2019-02-24T04:26:57.489Z,1.47
2019-02-24T04:30:04.039Z,1.27
2019-02-24T04:33:10.327Z,1.20
2019-02-24T04:36:16.745Z,1.47
2019-02-24T04:39:23.525Z,1.33
2019-02-24T04:42:30.118Z,1.37
2019-02-24T04:45:36.683Z,1.20
2019-02-24T04:48:42.961Z,0.73
2019-02-24T04:51:49.442Z,1.10
2019-02-24T04:54:56.482Z,1.00
2019-02-24T04:58:02.804Z,0.63
2019-02-24T05:01:09.839Z,0.80
2019-02-24T05:04:16.173Z,0.90
2019-02-24T05:07:23.005Z,1.10
2019-02-24T05:10:29.900Z,1.20
2019-02-24T05:13:36.986Z,0.67
2019-02-24T05:16:43.892Z,0.70
2019-02-24T05:19:50.270Z,0.70
2019-02-24T05:22:56.600Z,0.80
2019-02-24T05:26:02.983Z,0.90
2019-02-24T05:29:09.183Z,0.50
2019-02-24T05:32:16.152Z,0.80
2019-02-24T05:35:22.730Z,1.03
2019-02-24T05:38:29.070Z,0.90
2019-02-24T05:41:36.202Z,0.97
2019-02-24T05:44:42.709Z,0.80
2019-02-24T05:47:49.325Z,1.37
2019-02-24T05:50:55.839Z,0.97
2019-02-24T05:54:02.642Z,1.33
2019-02-24T05:57:09.260Z,0.77
2019-02-24T06:00:16.123Z,1.00
2019-02-24T06:03:23.003Z,0.90
2019-02-24T06:06:29.862Z,0.90
2019-02-24T06:09:36.304Z,2.03
2019-02-24T06:12:44.466Z,2.93
2019-02-24T06:15:51.141Z,2.07
2019-02-24T06:18:57.882Z,1.40
2019-02-24T06:22:04.556Z,1.60
2019-02-24T06:25:11.218Z,1.50
2019-02-24T06:28:17.876Z,1.47
2019-02-24T06:31:25.277Z,1.60
2019-02-24T06:34:31.752Z,2.10
2019-02-24T06:37:38.150Z,1.80
2019-02-24T06:40:44.817Z,1.53
2019-02-24T06:43:52.492Z,1.70
2019-02-24T06:46:59.803Z,1.67
2019-02-24T06:50:08.024Z,1.60
2019-02-24T06:53:15.997Z,1.43
2019-02-24T06:56:22.469Z,1.50
2019-02-24T06:59:28.982Z,1.30
2019-02-24T07:02:36.064Z,1.13
2019-02-24T07:05:42.452Z,1.40
2019-02-24T07:08:49.092Z,1.70
2019-02-24T07:11:55.524Z,2.57
2019-02-24T07:15:02.083Z,2.53
2019-02-24T07:18:09.063Z,2.60
2019-02-24T07:21:15.767Z,2.00
2019-02-24T07:24:22.330Z,2.37
2019-02-24T07:27:28.642Z,1.67
2019-02-24T07:30:35.367Z,1.70
2019-02-24T07:33:42.024Z,2.00
2019-02-24T07:36:48.414Z,2.53
2019-02-24T07:39:55.040Z,1.60
2019-02-24T07:43:02.305Z,1.77
2019-02-24T07:46:08.996Z,1.80
2019-02-24T07:49:16.130Z,1.70
2019-02-24T07:52:22.857Z,1.60
2019-02-24T07:55:29.253Z,1.20
2019-02-24T07:58:36.100Z,1.20
2019-02-24T08:01:43.242Z,1.60
2019-02-24T08:04:49.695Z,1.50
2019-02-24T08:07:56.294Z,1.23
2019-02-24T08:11:02.929Z,1.00
2019-02-24T08:14:10.525Z,1.07
2019-02-24T08:17:17.122Z,1.00
2019-02-24T08:20:24.153Z,0.93
2019-02-24T08:23:31.409Z,1.10
2019-02-24T08:26:38.220Z,1.10
2019-02-24T08:29:44.777Z,1.13
2019-02-24T08:32:51.398Z,1.60
2019-02-24T08:35:58.014Z,1.10
2019-02-24T08:39:04.947Z,1.30
2019-02-24T08:42:11.601Z,1.17
2019-02-24T08:45:19.245Z,1.07
2019-02-24T08:48:26.179Z,1.40
2019-02-24T08:51:33.400Z,1.00
2019-02-24T08:54:41.351Z,0.90
2019-02-24T08:57:47.686Z,1.30
2019-02-24T09:00:53.979Z,1.20
2019-02-24T09:04:00.961Z,1.40
2019-02-24T09:07:08.559Z,1.33
2019-02-24T09:10:15.479Z,1.60
2019-02-24T09:13:21.783Z,1.70
2019-02-24T09:16:29.461Z,1.43
2019-02-24T09:19:38.122Z,1.43
2019-02-24T09:22:44.933Z,1.57
2019-02-24T09:25:54.081Z,2.47
2019-02-24T09:29:01.025Z,2.20
2019-02-24T09:32:07.673Z,1.53
2019-02-24T09:35:14.057Z,5.97
2019-02-24T09:38:20.849Z,24.63
2019-02-24T09:41:27.979Z,15.00
2019-02-24T09:44:35.068Z,3.00
2019-02-24T09:47:46.671Z,3.70
2019-02-24T09:50:49.655Z,2.90
2019-02-24T09:53:56.978Z,10.23
2019-02-24T09:57:03.461Z,5.80
2019-02-24T10:00:10.713Z,3.43
2019-02-24T10:03:17.709Z,1.50
2019-02-24T10:06:31.320Z,2.17
2019-02-24T10:09:39.455Z,4.40
2019-02-24T10:12:50.577Z,4.83
2019-02-24T10:15:57.852Z,2.17
2019-02-24T10:19:08.370Z,3.20
2019-02-24T10:22:15.592Z,1.47
2019-02-24T10:25:25.331Z,1.63
2019-02-24T10:28:32.366Z,1.80
2019-02-24T10:31:40.458Z,1.80
2019-02-24T10:34:50.121Z,1.87
2019-02-24T10:37:57.497Z,1.60
2019-02-24T10:41:11.091Z,1.30
2019-02-24T10:44:18.827Z,1.33
2019-02-24T10:47:27.147Z,1.17
2019-02-24T10:50:35.560Z,0.87
2019-02-24T10:53:43.108Z,0.50
2019-02-24T10:56:50.688Z,1.00
2019-02-24T10:59:58.170Z,1.57
2019-02-24T11:03:07.165Z,3.10
2019-02-24T11:06:18.263Z,1.77
2019-02-24T11:09:29.173Z,2.10
2019-02-24T11:12:38.488Z,2.40
2019-02-24T11:15:48.254Z,1.97
2019-02-24T11:18:59.049Z,1.53
2019-02-24T11:22:12.642Z,3.10
2019-02-24T11:25:20.498Z,1.90
2019-02-24T11:28:29.133Z,1.93
2019-02-24T11:31:38.564Z,1.97
2019-02-24T11:34:51.026Z,1.90
2019-02-24T11:37:59.402Z,2.00
2019-02-24T11:41:10.136Z,2.10
2019-02-24T11:44:19.601Z,2.50
2019-02-24T11:47:33.823Z,2.60
2019-02-24T11:50:41.447Z,2.60
2019-02-24T11:53:49.065Z,2.70
2019-02-24T11:56:59.360Z,3.07
2019-02-24T12:00:07.109Z,2.40
2019-02-24T12:03:17.933Z,2.87
2019-02-24T12:06:28.650Z,2.60
2019-02-24T12:09:36.623Z,2.70
2019-02-24T12:12:48.342Z,2.73
2019-02-24T12:15:55.797Z,2.60
2019-02-24T12:19:02.742Z,2.77
2019-02-24T12:22:15.426Z,2.00
2019-02-24T12:25:23.972Z,1.70
2019-02-24T12:28:44.606Z,2.30
2019-02-24T12:31:56.541Z,1.40
2019-02-24T12:35:08.298Z,1.33
2019-02-24T12:38:17.274Z,1.70
2019-02-24T12:41:24.932Z,1.83
2019-02-24T12:44:33.840Z,1.50
2019-02-24T12:47:42.116Z,1.33
2019-02-24T12:50:52.871Z,1.00
2019-02-24T12:54:04.265Z,0.87
2019-02-24T12:57:14.249Z,1.00
2019-02-24T13:00:24.886Z,0.90
2019-02-24T13:03:31.988Z,1.10
2019-02-24T13:06:41.875Z,1.10
2019-02-24T13:09:53.365Z,0.97
2019-02-24T13:13:04.395Z,1.03
2019-02-24T13:16:12.122Z,1.20
2019-02-24T13:19:20.162Z,0.90
2019-02-24T13:22:36.163Z,1.20
2019-02-24T13:25:44.277Z,1.30
2019-02-24T13:28:54.870Z,1.73
2019-02-24T13:32:14.917Z,1.20
2019-02-24T13:35:22.613Z,2.00
2019-02-24T13:38:34.343Z,2.00
2019-02-24T13:41:45.640Z,1.30
2019-02-24T13:44:54.569Z,1.80
2019-02-24T13:48:06.705Z,1.23
2019-02-24T13:51:16.066Z,1.47
2019-02-24T13:54:24.388Z,1.87
2019-02-24T13:57:37.810Z,1.43
2019-02-24T14:00:46.608Z,1.20
2019-02-24T14:03:55.459Z,1.27
2019-02-24T14:07:12.586Z,1.10
2019-02-24T14:10:23.501Z,1.50
2019-02-24T14:13:34.368Z,1.80
2019-02-24T14:16:47.383Z,1.50
2019-02-24T14:19:59.900Z,1.20
2019-02-24T14:23:10.614Z,1.53
2019-02-24T14:26:21.734Z,1.53
2019-02-24T14:29:30.729Z,2.03
2019-02-24T14:32:40.421Z,1.50
2019-02-24T14:35:48.718Z,1.70
2019-02-24T14:38:56.692Z,1.67
2019-02-24T14:42:04.111Z,2.30
2019-02-24T14:45:13.475Z,2.10
2019-02-24T14:48:19.913Z,2.03
2019-02-24T14:51:27.051Z,1.50
2019-02-24T14:54:33.671Z,1.37
2019-02-24T14:57:41.411Z,2.17
2019-02-24T15:00:48.853Z,1.63
2019-02-24T15:03:55.865Z,2.10
2019-02-24T15:07:02.750Z,1.87
2019-02-24T15:10:10.891Z,1.40
2019-02-24T15:13:17.517Z,1.80
2019-02-24T15:16:24.083Z,1.67
2019-02-24T15:19:30.739Z,2.17
2019-02-24T15:22:37.797Z,2.10
2019-02-24T15:25:44.528Z,1.53
2019-02-24T15:28:51.383Z,1.43
2019-02-24T15:31:58.066Z,1.97
2019-02-24T15:35:04.728Z,2.90
2019-02-24T15:38:11.785Z,2.00
2019-02-24T15:41:19.826Z,1.80
2019-02-24T15:44:26.365Z,1.80
2019-02-24T15:47:32.710Z,1.87
2019-02-24T15:50:39.665Z,3.03
2019-02-24T15:53:46.395Z,2.60
2019-02-24T15:56:53.461Z,2.23
2019-02-24T16:00:00.022Z,2.33
2019-02-24T16:03:06.882Z,1.63
2019-02-24T16:06:14.940Z,1.40
2019-02-24T16:09:21.941Z,1.40
2019-02-24T16:12:28.836Z,1.23
2019-02-24T16:15:35.260Z,1.17
2019-02-24T16:18:42.478Z,1.50
2019-02-24T16:21:50.163Z,1.10
2019-02-24T16:24:57.075Z,1.60
2019-02-24T16:28:03.711Z,1.17
2019-02-24T16:31:12.466Z,0.80
2019-02-24T16:34:19.249Z,1.40
2019-02-24T16:37:26.060Z,1.03
2019-02-24T16:40:32.761Z,1.33
2019-02-24T16:43:39.255Z,1.23
2019-02-24T16:46:47.363Z,1.40
2019-02-24T16:49:54.589Z,1.30
2019-02-24T16:53:01.508Z,1.33
2019-02-24T16:56:08.031Z,2.20
2019-02-24T16:59:15.960Z,1.70
2019-02-24T17:02:23.207Z,2.90
2019-02-24T17:05:29.805Z,2.20
2019-02-24T17:08:37.026Z,3.07
2019-02-24T17:11:43.745Z,3.60
2019-02-24T17:14:51.842Z,5.10
2019-02-24T17:18:00.338Z,11.20
2019-02-24T17:21:10.276Z,13.43
2019-02-24T17:24:17.168Z,11.13
2019-02-24T17:27:24.082Z,10.43
2019-02-24T17:30:30.877Z,9.10
2019-02-24T17:33:38.153Z,11.23
2019-02-24T17:36:45.558Z,10.03
2019-02-24T17:39:54.804Z,9.03
2019-02-24T17:43:02.075Z,8.37
2019-02-24T17:46:11.447Z,6.27
2019-02-24T17:49:18.228Z,19.70
2019-02-24T17:52:25.348Z,21.63
2019-02-24T17:55:32.138Z,16.10
2019-02-24T17:58:39.532Z,7.23
2019-02-24T18:01:46.952Z,4.60
2019-02-24T18:04:54.697Z,7.30
2019-02-24T18:08:01.841Z,8.37
2019-02-24T18:11:09.104Z,11.10
2019-02-24T18:14:17.176Z,8.83
2019-02-24T18:17:23.889Z,6.10
2019-02-24T18:20:30.744Z,5.27
2019-02-24T18:23:37.496Z,6.00
2019-02-24T18:26:44.563Z,15.90
2019-02-24T18:29:53.500Z,17.60
2019-02-24T18:33:00.919Z,13.63
2019-02-24T18:36:07.386Z,11.90
2019-02-24T18:39:14.400Z,12.53
2019-02-24T18:42:22.097Z,12.07
2019-02-24T18:45:28.754Z,8.60
2019-02-24T18:48:35.770Z,7.73
2019-02-24T18:51:43.118Z,8.63
2019-02-24T18:54:50.584Z,8.27
2019-02-24T18:57:58.755Z,6.67
2019-02-24T19:01:05.816Z,6.47
2019-02-24T19:04:12.701Z,4.93
2019-02-24T19:07:19.824Z,4.70
2019-02-24T19:10:27.002Z,11.50
2019-02-24T19:13:35.166Z,16.50
2019-02-24T19:16:41.915Z,16.60
2019-02-24T19:19:48.636Z,13.03
2019-02-24T19:22:55.610Z,10.80
2019-02-24T19:26:02.060Z,6.77
2019-02-24T19:29:11.158Z,9.20
2019-02-24T19:32:17.722Z,8.00
2019-02-24T19:35:24.451Z,8.70
2019-02-24T19:38:31.564Z,8.27
2019-02-24T19:41:39.537Z,6.83
2019-02-24T19:44:46.249Z,7.70
2019-02-24T19:47:53.407Z,7.90
2019-02-24T19:51:01.324Z,7.00
2019-02-24T19:54:10.497Z,6.00
2019-02-24T19:57:17.476Z,5.33
2019-02-24T20:00:24.342Z,4.23
2019-02-24T20:03:31.460Z,4.37
2019-02-24T20:06:39.058Z,5.57
2019-02-24T20:09:46.269Z,5.30
2019-02-24T20:12:53.047Z,5.23
2019-02-24T20:15:59.591Z,5.67
2019-02-24T20:19:06.288Z,5.30
2019-02-24T20:22:12.941Z,5.20
2019-02-24T20:25:20.049Z,6.60
2019-02-24T20:28:27.031Z,5.40
2019-02-24T20:31:35.304Z,5.00
2019-02-24T20:34:42.471Z,5.37
2019-02-24T20:37:49.592Z,5.80
2019-02-24T20:40:57.765Z,4.70
2019-02-24T20:44:04.536Z,5.00
2019-02-24T20:47:14.208Z,5.77
2019-02-24T20:50:21.518Z,4.80
2019-02-24T20:53:28.370Z,5.40
2019-02-24T20:56:35.656Z,4.80
2019-02-24T20:59:43.042Z,4.50
2019-02-24T21:02:49.746Z,5.00
2019-02-24T21:05:56.573Z,5.10
2019-02-24T21:09:05.230Z,5.27
2019-02-24T21:12:13.163Z,5.40
2019-02-24T21:15:19.892Z,5.60
2019-02-24T21:18:26.942Z,4.87
2019-02-24T21:21:34.370Z,5.00
2019-02-24T21:24:41.532Z,4.97
2019-02-24T21:27:48.034Z,4.83
2019-02-24T21:30:54.821Z,5.50
2019-02-24T21:34:01.570Z,4.83
2019-02-24T21:37:08.276Z,5.00
2019-02-24T21:40:17.043Z,4.47
2019-02-24T21:43:24.407Z,4.73
2019-02-24T21:46:31.211Z,4.50
2019-02-24T21:49:37.818Z,16.93
2019-02-24T21:52:45.791Z,10.17
2019-02-24T21:55:52.721Z,6.37
2019-02-24T21:58:59.233Z,7.97
2019-02-24T22:02:06.274Z,5.53
2019-02-24T22:05:13.156Z,5.10
2019-02-24T22:08:19.685Z,5.63
2019-02-24T22:11:26.052Z,5.40
2019-02-24T22:14:32.841Z,4.13
2019-02-24T22:17:41.402Z,4.10
2019-02-24T22:20:48.095Z,4.50
2019-02-24T22:23:54.983Z,4.73
2019-02-24T22:27:01.416Z,5.03
2019-02-24T22:30:09.768Z,4.63
2019-02-24T22:33:16.755Z,4.40
2019-02-24T22:36:23.146Z,4.67
2019-02-24T22:39:29.774Z,4.87
2019-02-24T22:42:38.112Z,4.10
2019-02-24T22:45:45.910Z,5.27
2019-02-24T22:48:52.674Z,4.67
2019-02-24T22:51:59.615Z,5.07
2019-02-24T22:55:06.359Z,4.37
2019-02-24T22:58:13.214Z,3.73
2019-02-24T23:01:26.434Z,4.30
2019-02-24T23:04:34.720Z,4.40
2019-02-24T23:07:41.443Z,3.87
2019-02-24T23:10:48.189Z,4.90
2019-02-24T23:13:55.580Z,3.97
2019-02-24T23:17:02.130Z,4.70
2019-02-24T23:20:08.976Z,4.00
2019-02-24T23:23:15.624Z,3.60
2019-02-24T23:26:22.314Z,3.63
2019-02-24T23:29:28.998Z,3.50
2019-02-24T23:32:35.801Z,3.60
2019-02-24T23:35:42.429Z,3.77
2019-02-24T23:38:48.733Z,3.60
2019-02-24T23:41:55.435Z,3.67
2019-02-24T23:45:09.929Z,3.13
2019-02-24T23:48:11.756Z,4.03
2019-02-24T23:51:18.543Z,3.43
2019-02-24T23:54:25.137Z,3.60
2019-02-24T23:57:31.973Z,3.03
